createdAt,value
2019-02-27T00:01:37.724Z,19.50
2019-02-27T00:04:08.060Z,21.37
2019-02-27T00:06:38.470Z,20.40
2019-02-27T00:09:09.540Z,19.70
2019-02-27T00:11:45.852Z,17.20
2019-02-27T00:17:05.901Z,19.83
2019-02-27T00:19:38.040Z,19.13
2019-02-27T00:22:08.417Z,21.33
2019-02-27T00:24:38.753Z,20.53
2019-02-27T00:27:09.020Z,20.80
2019-02-27T00:29:39.303Z,20.27
2019-02-27T00:32:09.639Z,21.07
2019-02-27T00:34:40.015Z,21.67
2019-02-27T00:37:10.368Z,21.60
2019-02-27T00:39:40.731Z,22.67
2019-02-27T00:42:11.020Z,22.00
2019-02-27T00:44:41.300Z,21.63
2019-02-27T00:47:11.566Z,25.20
2019-02-27T00:49:41.844Z,21.63
2019-02-27T00:52:12.138Z,22.23
2019-02-27T00:54:42.412Z,20.07
2019-02-27T00:57:12.685Z,21.20
2019-02-27T00:59:42.975Z,21.23
2019-02-27T01:02:13.243Z,20.37
2019-02-27T01:04:43.586Z,19.67
2019-02-27T01:07:13.862Z,18.53
2019-02-27T01:09:44.241Z,20.27
2019-02-27T01:12:14.523Z,21.00
2019-02-27T01:14:44.816Z,20.33
2019-02-27T01:17:15.081Z,19.07
2019-02-27T01:19:45.429Z,19.10
2019-02-27T01:22:15.689Z,20.57
2019-02-27T01:24:49.923Z,19.97
2019-02-27T01:27:17.959Z,21.43
2019-02-27T01:29:51.604Z,20.37
2019-02-27T01:32:21.068Z,19.50
2019-02-27T01:34:51.367Z,19.00
2019-02-27T01:37:21.637Z,20.17
2019-02-27T01:39:51.960Z,21.50
2019-02-27T01:42:22.215Z,19.97
2019-02-27T01:44:52.513Z,20.03
2019-02-27T01:47:22.786Z,19.27
2019-02-27T01:49:53.099Z,19.77
2019-02-27T01:52:23.400Z,19.23
2019-02-27T01:54:54.528Z,18.80
2019-02-27T01:57:24.805Z,18.27
2019-02-27T01:59:56.166Z,19.17
2019-02-27T02:02:26.442Z,17.87
2019-02-27T02:04:57.808Z,20.37
2019-02-27T02:07:28.090Z,18.30
2019-02-27T02:09:58.379Z,18.47
2019-02-27T02:12:28.652Z,17.37
2019-02-27T02:15:17.985Z,19.00
2019-02-27T02:18:00.245Z,18.50
2019-02-27T02:20:48.658Z,18.10
2019-02-27T02:23:23.168Z,22.47
2019-02-27T02:26:16.387Z,22.37
2019-02-27T02:29:06.241Z,21.53
2019-02-27T02:31:41.751Z,17.27
2019-02-27T02:34:40.111Z,16.03
2019-02-27T02:37:45.225Z,19.37
2019-02-27T02:40:30.806Z,21.13
2019-02-27T02:43:19.347Z,20.97
2019-02-27T02:45:55.574Z,20.27
2019-02-27T02:48:57.361Z,20.27
2019-02-27T02:51:54.790Z,20.27
2019-02-27T02:54:41.543Z,21.43
2019-02-27T02:57:20.670Z,20.43
2019-02-27T02:59:59.484Z,22.57
2019-02-27T03:02:37.544Z,21.50
2019-02-27T03:05:16.951Z,20.97
2019-02-27T03:08:05.574Z,21.27
2019-02-27T03:10:42.882Z,22.13
2019-02-27T03:13:41.536Z,20.50
2019-02-27T03:16:16.226Z,18.23
2019-02-27T03:18:52.453Z,20.57
2019-02-27T03:21:29.023Z,19.33
2019-02-27T03:24:05.596Z,17.30
2019-02-27T03:27:02.371Z,16.43
2019-02-27T03:29:44.879Z,20.63
2019-02-27T03:32:21.223Z,20.33
2019-02-27T03:35:06.942Z,19.97
2019-02-27T03:37:48.437Z,20.67
2019-02-27T03:40:21.469Z,20.97
2019-02-27T03:43:28.525Z,19.80
2019-02-27T03:46:11.026Z,21.07
2019-02-27T03:48:50.294Z,19.13
2019-02-27T03:51:42.059Z,19.60
2019-02-27T03:54:34.227Z,20.00
2019-02-27T03:57:23.732Z,19.07
2019-02-27T04:00:03.219Z,19.70
2019-02-27T04:02:42.890Z,21.70
2019-02-27T04:05:28.515Z,20.83
2019-02-27T04:08:19.596Z,17.70
2019-02-27T04:10:49.968Z,17.47
2019-02-27T04:13:26.819Z,16.87
2019-02-27T04:15:53.632Z,19.23
2019-02-27T04:18:27.309Z,17.50
2019-02-27T04:20:55.815Z,18.93
2019-02-27T04:23:26.137Z,19.30
2019-02-27T04:25:56.431Z,19.10
2019-02-27T04:28:29.559Z,18.77
2019-02-27T04:30:58.688Z,21.20
2019-02-27T04:33:28.964Z,17.97
2019-02-27T04:35:59.251Z,20.07
2019-02-27T04:38:29.628Z,19.20
2019-02-27T04:40:59.947Z,17.80
2019-02-27T04:43:32.171Z,18.63
2019-02-27T04:46:02.304Z,18.37
2019-02-27T04:48:32.665Z,18.53
2019-02-27T04:51:02.946Z,17.20
2019-02-27T04:53:33.225Z,17.73
2019-02-27T04:56:04.218Z,17.30
2019-02-27T04:58:34.503Z,14.93
2019-02-27T05:01:04.789Z,14.47
2019-02-27T05:03:36.196Z,17.37
2019-02-27T05:06:06.482Z,16.50
2019-02-27T05:08:36.788Z,17.83
2019-02-27T05:11:07.118Z,16.83
2019-02-27T05:13:37.416Z,17.90
2019-02-27T05:16:08.653Z,17.47
2019-02-27T05:18:38.928Z,18.87
2019-02-27T05:21:09.313Z,19.37
2019-02-27T05:23:40.572Z,18.10
2019-02-27T05:26:10.853Z,20.07
2019-02-27T05:28:41.188Z,19.07
2019-02-27T05:31:11.475Z,19.13
2019-02-27T05:33:41.741Z,17.20
2019-02-27T05:36:12.014Z,18.50
2019-02-27T05:38:43.647Z,16.87
2019-02-27T05:41:15.498Z,18.37
2019-02-27T05:43:48.462Z,19.90
2019-02-27T05:46:17.760Z,16.67
2019-02-27T05:48:50.895Z,19.00
2019-02-27T05:51:20.279Z,18.13
2019-02-27T05:53:50.554Z,18.93
2019-02-27T05:56:20.857Z,19.50
2019-02-27T05:58:51.128Z,19.20
2019-02-27T06:01:21.578Z,21.10
2019-02-27T06:03:52.258Z,18.80
2019-02-27T06:06:23.319Z,16.27
2019-02-27T06:08:53.592Z,17.37
2019-02-27T06:11:23.868Z,17.00
2019-02-27T06:13:54.216Z,14.53
2019-02-27T06:16:24.499Z,13.33
2019-02-27T06:18:56.983Z,15.13
2019-02-27T06:21:27.433Z,16.53
2019-02-27T06:23:57.704Z,17.40
2019-02-27T06:26:32.193Z,15.53
2019-02-27T06:29:00.009Z,15.80
2019-02-27T06:31:30.286Z,15.47
2019-02-27T06:34:00.560Z,19.07
2019-02-27T06:36:30.904Z,17.10
2019-02-27T06:39:01.174Z,18.57
2019-02-27T06:41:33.115Z,18.77
2019-02-27T06:44:03.408Z,18.13
2019-02-27T06:46:33.715Z,16.00
2019-02-27T06:49:03.975Z,17.50
2019-02-27T06:51:35.778Z,16.70
2019-02-27T06:54:06.349Z,15.07
2019-02-27T06:56:37.716Z,16.43
2019-02-27T06:59:08.011Z,16.23
2019-02-27T07:01:38.345Z,16.50
2019-02-27T07:04:08.646Z,18.37
2019-02-27T07:06:38.926Z,18.20
2019-02-27T07:09:11.637Z,15.93
2019-02-27T07:11:44.891Z,15.87
2019-02-27T07:14:14.576Z,17.23
2019-02-27T07:16:44.949Z,18.10
2019-02-27T07:19:15.887Z,17.27
2019-02-27T07:21:47.848Z,18.43
2019-02-27T07:24:18.204Z,17.53
2019-02-27T07:26:50.281Z,15.93
2019-02-27T07:29:21.930Z,16.23
2019-02-27T07:31:53.621Z,16.13
2019-02-27T07:34:23.886Z,19.00
2019-02-27T07:36:54.202Z,18.33
2019-02-27T07:39:24.481Z,18.83
2019-02-27T07:41:54.788Z,18.93
2019-02-27T07:44:25.071Z,18.50
2019-02-27T07:46:57.487Z,18.43
2019-02-27T07:49:28.369Z,19.60
2019-02-27T07:51:59.326Z,19.20
2019-02-27T07:54:29.670Z,16.77
2019-02-27T07:56:59.972Z,17.33
2019-02-27T07:59:32.174Z,16.33
2019-02-27T08:02:03.189Z,17.17
2019-02-27T08:04:33.591Z,21.00
2019-02-27T08:07:04.281Z,16.60
2019-02-27T08:09:34.573Z,14.30
2019-02-27T08:12:06.372Z,15.20
2019-02-27T08:14:37.240Z,16.77
2019-02-27T08:17:17.378Z,15.77
2019-02-27T08:19:42.880Z,16.37
2019-02-27T08:22:12.258Z,16.30
2019-02-27T08:24:42.644Z,17.17
2019-02-27T08:27:12.983Z,18.70
2019-02-27T08:29:43.247Z,17.83
2019-02-27T08:32:13.520Z,18.17
2019-02-27T08:34:43.945Z,18.77
2019-02-27T08:37:14.227Z,19.30
2019-02-27T08:39:45.257Z,18.97
2019-02-27T08:42:15.864Z,18.37
2019-02-27T08:44:46.667Z,18.90
2019-02-27T08:47:16.881Z,18.53
2019-02-27T08:49:47.159Z,19.83
2019-02-27T08:52:17.458Z,18.50
2019-02-27T08:54:47.759Z,20.50
2019-02-27T08:57:18.462Z,20.50
2019-02-27T08:59:48.767Z,19.23
2019-02-27T09:02:19.052Z,20.67
2019-02-27T09:04:49.320Z,20.37
2019-02-27T09:07:19.596Z,20.87
2019-02-27T09:09:51.620Z,21.80
2019-02-27T09:12:21.937Z,20.93
2019-02-27T09:14:52.305Z,21.23
2019-02-27T09:17:26.850Z,21.63
2019-02-27T09:19:54.852Z,20.90
2019-02-27T09:22:25.131Z,20.87
2019-02-27T09:24:57.205Z,21.57
2019-02-27T09:27:27.545Z,20.03
2019-02-27T09:29:57.802Z,20.33
2019-02-27T09:32:28.068Z,19.97
2019-02-27T09:34:59.602Z,22.57
2019-02-27T09:37:30.553Z,19.93
2019-02-27T09:40:04.810Z,19.50
2019-02-27T09:42:35.018Z,21.03
2019-02-27T09:45:08.235Z,20.23
2019-02-27T09:47:39.610Z,20.00
2019-02-27T09:50:13.841Z,20.60
2019-02-27T09:52:43.655Z,18.20
2019-02-27T09:55:13.929Z,21.27
2019-02-27T09:57:44.342Z,21.20
2019-02-27T10:00:33.395Z,20.97
2019-02-27T10:03:03.695Z,21.47
2019-02-27T10:05:36.763Z,20.70
2019-02-27T10:08:07.584Z,23.63
2019-02-27T10:10:44.943Z,21.40
2019-02-27T10:13:14.062Z,22.87
2019-02-27T10:15:44.463Z,21.70
2019-02-27T10:18:18.042Z,21.00
2019-02-27T10:20:46.706Z,21.83
2019-02-27T10:23:16.991Z,22.17
2019-02-27T10:25:47.263Z,24.97
2019-02-27T10:28:17.577Z,23.87
2019-02-27T10:30:50.108Z,24.30
2019-02-27T10:33:19.878Z,22.97
2019-02-27T10:35:50.168Z,23.70
2019-02-27T10:38:20.460Z,24.30
2019-02-27T10:44:37.069Z,25.43
2019-02-27T10:47:07.380Z,25.53
2019-02-27T10:49:38.321Z,26.87
2019-02-27T10:52:08.810Z,26.90
2019-02-27T10:54:39.955Z,24.87
2019-02-27T10:57:12.305Z,26.50
2019-02-27T10:59:42.770Z,25.87
2019-02-27T11:02:13.327Z,27.33
2019-02-27T11:04:43.608Z,24.73
2019-02-27T11:07:15.915Z,27.73
2019-02-27T11:09:45.902Z,28.77
2019-02-27T11:12:16.169Z,28.30
2019-02-27T11:14:46.434Z,27.40
2019-02-27T11:17:16.793Z,27.03
2019-02-27T11:19:47.057Z,31.00
2019-02-27T11:22:17.339Z,28.87
2019-02-27T11:24:49.494Z,29.33
2019-02-27T11:27:20.779Z,31.07
2019-02-27T11:29:51.137Z,29.67
2019-02-27T11:32:23.869Z,29.10
2019-02-27T11:34:53.486Z,31.07
2019-02-27T11:37:23.838Z,30.77
2019-02-27T11:39:54.111Z,30.27
2019-02-27T11:42:26.018Z,32.40
2019-02-27T11:44:56.299Z,32.33
2019-02-27T11:47:26.640Z,31.43
2019-02-27T11:49:56.917Z,31.00
2019-02-27T11:52:28.647Z,31.77
2019-02-27T11:54:59.194Z,31.43
2019-02-27T11:57:30.520Z,31.93
2019-02-27T12:00:01.729Z,30.73
2019-02-27T12:02:37.009Z,28.97
2019-02-27T12:05:08.328Z,32.40
2019-02-27T12:07:38.610Z,34.17
2019-02-27T12:10:15.043Z,31.47
2019-02-27T12:12:45.340Z,31.83
2019-02-27T12:15:17.562Z,35.40
2019-02-27T12:17:47.896Z,31.93
2019-02-27T12:20:20.276Z,32.17
2019-02-27T12:22:50.577Z,33.17
2019-02-27T12:25:26.736Z,32.53
2019-02-27T12:27:56.987Z,35.23
2019-02-27T12:30:30.867Z,32.90
2019-02-27T12:33:01.226Z,31.53
2019-02-27T12:35:34.015Z,34.50
2019-02-27T12:38:08.215Z,34.73
2019-02-27T12:40:37.132Z,36.17
2019-02-27T12:43:07.587Z,34.03
2019-02-27T12:45:37.852Z,36.57
2019-02-27T12:48:08.205Z,36.93
2019-02-27T12:50:38.570Z,36.93
2019-02-27T12:53:08.889Z,36.23
2019-02-27T12:55:39.167Z,38.57
2019-02-27T12:58:09.443Z,34.77
2019-02-27T13:00:42.525Z,36.90
2019-02-27T13:03:12.024Z,36.30
2019-02-27T13:05:42.386Z,38.93
2019-02-27T13:08:12.683Z,35.13
2019-02-27T13:10:43.028Z,38.10
2019-02-27T13:13:13.367Z,38.97
2019-02-27T13:15:43.630Z,37.90
2019-02-27T13:18:13.934Z,39.03
2019-02-27T13:20:45.676Z,36.77
2019-02-27T13:23:16.254Z,38.37
2019-02-27T13:25:46.594Z,39.03
2019-02-27T13:28:16.891Z,39.50
2019-02-27T13:30:47.210Z,37.07
2019-02-27T13:33:17.543Z,38.37
2019-02-27T13:35:47.836Z,37.57
2019-02-27T13:38:18.685Z,39.37
2019-02-27T13:40:49.062Z,38.43
2019-02-27T13:43:19.367Z,37.07
2019-02-27T13:45:49.739Z,39.23
2019-02-27T13:48:20.106Z,39.50
2019-02-27T13:50:50.391Z,39.57
2019-02-27T13:53:25.783Z,37.13
2019-02-27T13:55:52.732Z,39.17
2019-02-27T13:58:23.298Z,39.67
2019-02-27T14:00:54.500Z,41.60
2019-02-27T14:03:25.014Z,40.53
2019-02-27T14:05:55.380Z,40.93
2019-02-27T14:08:25.689Z,39.90
2019-02-27T14:10:55.945Z,39.13
2019-02-27T14:13:26.312Z,38.13
2019-02-27T14:15:58.057Z,40.93
2019-02-27T14:18:28.586Z,39.00
2019-02-27T14:21:01.262Z,40.33
2019-02-27T14:23:30.931Z,39.60
2019-02-27T14:26:05.349Z,39.70
2019-02-27T14:28:33.372Z,38.93
2019-02-27T14:31:03.667Z,42.20
2019-02-27T14:33:34.069Z,43.10
2019-02-27T14:36:08.190Z,39.23
2019-02-27T14:38:36.451Z,39.23
2019-02-27T14:41:06.787Z,39.50
2019-02-27T14:43:37.262Z,39.47
2019-02-27T14:46:07.610Z,39.27
2019-02-27T14:48:37.918Z,37.40
2019-02-27T14:51:11.070Z,39.83
2019-02-27T14:53:42.691Z,35.47
2019-02-27T14:56:13.272Z,36.53
2019-02-27T14:58:44.006Z,35.00
2019-02-27T15:01:15.078Z,34.57
2019-02-27T15:03:45.822Z,34.83
2019-02-27T15:06:19.248Z,34.00
2019-02-27T15:12:39.124Z,32.97
2019-02-27T15:15:15.851Z,32.57
2019-02-27T15:17:46.541Z,32.90
2019-02-27T15:20:19.323Z,31.00
2019-02-27T15:22:52.529Z,32.50
2019-02-27T15:25:23.786Z,33.53
2019-02-27T15:27:58.306Z,31.07
2019-02-27T15:30:58.293Z,31.23
2019-02-27T15:33:29.232Z,31.27
2019-02-27T15:36:00.145Z,30.70
2019-02-27T15:38:30.555Z,30.63
2019-02-27T15:41:03.209Z,31.10
2019-02-27T15:43:34.120Z,30.50
2019-02-27T15:46:04.960Z,29.47
2019-02-27T15:48:40.468Z,30.87
2019-02-27T15:51:12.380Z,29.03
2019-02-27T15:57:57.056Z,28.53
2019-02-27T16:00:27.981Z,26.27
2019-02-27T16:02:58.395Z,25.47
2019-02-27T16:05:31.387Z,30.03
2019-02-27T16:08:01.482Z,30.30
2019-02-27T16:10:32.381Z,34.90
2019-02-27T16:13:02.811Z,32.03
2019-02-27T16:15:33.453Z,27.50
2019-02-27T16:18:05.285Z,25.93
2019-02-27T16:20:37.018Z,27.27
2019-02-27T16:23:19.609Z,26.77
2019-02-27T16:36:54.679Z,26.10
2019-02-27T16:40:23.467Z,25.77
2019-02-27T16:43:14.412Z,27.20
2019-02-27T16:45:44.878Z,26.23
2019-02-27T16:48:15.166Z,27.77
2019-02-27T16:50:45.713Z,25.63
2019-02-27T16:53:19.312Z,26.07
2019-02-27T16:55:49.720Z,28.83
2019-02-27T16:58:20.147Z,28.70
2019-02-27T17:00:54.229Z,26.87
2019-02-27T17:03:24.409Z,25.70
2019-02-27T17:05:54.687Z,26.37
2019-02-27T17:08:25.851Z,24.93
2019-02-27T17:10:59.633Z,24.43
2019-02-27T17:13:29.718Z,26.10
2019-02-27T17:16:00.125Z,27.23
2019-02-27T17:18:30.547Z,49.73
2019-02-27T17:21:01.350Z,53.37
2019-02-27T17:23:32.667Z,61.77
2019-02-27T17:26:04.288Z,46.10
2019-02-27T17:28:34.944Z,58.17
2019-02-27T17:31:11.721Z,38.53
2019-02-27T17:33:38.703Z,24.87
2019-02-27T17:36:09.201Z,23.17
2019-02-27T17:38:39.541Z,27.10
2019-02-27T17:41:11.616Z,29.40
2019-02-27T17:43:42.410Z,29.33
2019-02-27T17:46:12.654Z,26.60
2019-02-27T17:48:43.307Z,25.30
2019-02-27T17:51:15.731Z,26.83
2019-02-27T17:53:47.704Z,26.43
2019-02-27T17:56:18.050Z,25.57
2019-02-27T17:58:51.098Z,26.07
2019-02-27T18:01:24.916Z,26.43
2019-02-27T18:03:55.976Z,23.73
2019-02-27T18:06:26.817Z,24.63
2019-02-27T18:09:01.089Z,26.37
2019-02-27T18:11:33.023Z,24.97
2019-02-27T18:14:16.141Z,25.83
2019-02-27T18:16:46.486Z,24.63
2019-02-27T18:19:17.263Z,25.47
2019-02-27T18:21:48.075Z,26.23
2019-02-27T18:24:19.484Z,25.60
2019-02-27T18:26:51.353Z,23.13
2019-02-27T18:29:26.014Z,26.13
2019-02-27T18:32:50.546Z,23.67
2019-02-27T18:35:21.503Z,20.40
2019-02-27T18:41:45.686Z,21.13
2019-02-27T18:48:37.245Z,23.30
2019-02-27T18:54:54.733Z,24.67
2019-02-27T19:01:37.746Z,21.70
2019-02-27T19:20:33.754Z,21.37
2019-02-27T19:23:06.031Z,24.37
2019-02-27T19:25:41.831Z,22.60
2019-02-27T19:28:12.786Z,23.70
2019-02-27T19:30:43.883Z,23.97
2019-02-27T19:33:17.347Z,22.00
2019-02-27T19:35:47.640Z,21.00
2019-02-27T19:38:23.005Z,20.43
2019-02-27T19:40:58.352Z,20.00
2019-02-27T19:43:48.540Z,22.27
2019-02-27T19:46:20.334Z,21.07
2019-02-27T19:48:50.934Z,20.30
2019-02-27T19:51:21.975Z,19.73
2019-02-27T19:53:53.372Z,22.10
2019-02-27T19:56:25.223Z,19.40
2019-02-27T19:59:02.975Z,18.93
2019-02-27T20:01:40.433Z,18.67
2019-02-27T20:04:10.258Z,19.20
2019-02-27T20:06:45.657Z,19.97
2019-02-27T20:09:20.174Z,19.90
2019-02-27T20:11:50.390Z,20.03
2019-02-27T20:14:20.848Z,21.43
2019-02-27T20:16:54.977Z,19.77
2019-02-27T20:19:28.232Z,22.67
2019-02-27T20:21:55.190Z,20.93
2019-02-27T20:37:40.210Z,20.50
2019-02-27T20:43:35.266Z,23.17
2019-02-27T20:50:11.829Z,26.00
2019-02-27T20:52:42.778Z,23.00
2019-02-27T20:55:13.252Z,24.47
2019-02-27T20:57:45.292Z,25.83
2019-02-27T21:00:19.217Z,27.27
2019-02-27T21:02:53.478Z,28.97
2019-02-27T21:05:24.959Z,27.70
2019-02-27T21:08:00.909Z,26.20
2019-02-27T21:10:34.864Z,24.10
2019-02-27T21:13:05.884Z,20.93
2019-02-27T21:15:36.168Z,23.27
2019-02-27T21:18:06.254Z,25.40
2019-02-27T21:20:36.529Z,24.37
2019-02-27T21:23:09.211Z,23.67
2019-02-27T21:29:18.178Z,24.20
2019-02-27T21:31:48.771Z,24.83
2019-02-27T21:34:20.140Z,23.07
2019-02-27T21:36:50.610Z,24.77
2019-02-27T21:39:22.585Z,25.23
2019-02-27T21:41:52.973Z,24.53
2019-02-27T21:44:25.700Z,26.83
2019-02-27T21:46:57.969Z,25.83
2019-02-27T21:49:31.626Z,26.70
2019-02-27T21:52:00.395Z,25.07
2019-02-27T21:54:30.801Z,24.33
2019-02-27T21:57:01.193Z,25.60
2019-02-27T21:59:31.466Z,22.57
2019-02-27T22:02:03.762Z,23.60
2019-02-27T22:04:34.405Z,21.83
2019-02-27T22:07:04.776Z,19.97
2019-02-27T22:09:35.107Z,19.13
2019-02-27T22:12:07.205Z,18.97
2019-02-27T22:14:37.433Z,20.97
2019-02-27T22:17:07.738Z,20.57
2019-02-27T22:19:39.140Z,20.63
2019-02-27T22:22:10.974Z,18.90
2019-02-27T22:24:41.877Z,18.63
2019-02-27T22:27:13.474Z,19.37
2019-02-27T22:29:46.757Z,18.07
2019-02-27T22:32:17.082Z,18.93
2019-02-27T22:34:47.354Z,17.40
2019-02-27T22:37:18.572Z,19.37
2019-02-27T22:39:49.062Z,18.13
2019-02-27T22:42:19.448Z,17.57
2019-02-27T22:44:49.866Z,17.57
2019-02-27T22:47:21.592Z,17.17
2019-02-27T22:49:52.190Z,17.30
2019-02-27T22:52:22.729Z,17.73
2019-02-27T22:54:53.063Z,18.10
2019-02-27T22:57:23.558Z,17.30
2019-02-27T22:59:53.833Z,16.60
2019-02-27T23:02:24.433Z,16.23
2019-02-27T23:04:54.771Z,16.40
2019-02-27T23:07:25.083Z,17.83
2019-02-27T23:09:57.514Z,17.40
2019-02-27T23:12:27.475Z,18.00
2019-02-27T23:14:57.820Z,18.20
2019-02-27T23:17:28.157Z,17.97
2019-02-27T23:19:58.423Z,17.13
2019-02-27T23:22:28.899Z,17.03
2019-02-27T23:24:59.941Z,17.73
2019-02-27T23:27:30.291Z,17.27
2019-02-27T23:30:00.637Z,19.37
2019-02-27T23:32:30.953Z,17.17
2019-02-27T23:35:01.321Z,17.93
2019-02-27T23:37:32.989Z,16.43
2019-02-27T23:40:03.394Z,15.73
2019-02-27T23:42:33.731Z,15.33
2019-02-27T23:45:05.455Z,16.40
2019-02-27T23:47:35.726Z,16.13
2019-02-27T23:50:10.885Z,14.97
2019-02-27T23:52:41.464Z,16.10
2019-02-27T23:55:11.778Z,14.50
2019-02-27T23:57:42.204Z,15.20
